createdAt,value
2022-09-18T00:00:15.394Z,9.70
2022-09-18T00:02:43.117Z,9.70
2022-09-18T00:05:11.598Z,9.70
2022-09-18T00:07:39.363Z,9.70
2022-09-18T00:10:07.893Z,9.60
2022-09-18T00:12:35.638Z,9.70
2022-09-18T00:15:03.367Z,9.70
2022-09-18T00:17:32.433Z,9.70
2022-09-18T00:20:00.188Z,9.70
2022-09-18T00:22:27.916Z,9.70
2022-09-18T00:24:55.672Z,9.80
2022-09-18T00:27:23.415Z,9.70
2022-09-18T00:29:51.162Z,9.80
2022-09-18T00:32:18.927Z,9.80
2022-09-18T00:34:48.102Z,9.80
2022-09-18T00:37:15.893Z,9.80
2022-09-18T00:39:43.744Z,9.80
2022-09-18T00:42:13.836Z,9.80
2022-09-18T00:44:42.968Z,9.80
2022-09-18T00:47:23.269Z,9.80
2022-09-18T00:49:58.088Z,9.80
2022-09-18T00:52:30.613Z,9.80
2022-09-18T00:55:03.323Z,9.80
2022-09-18T00:57:33.902Z,9.80
2022-09-18T01:00:03.269Z,9.90
2022-09-18T01:02:31.195Z,9.90
2022-09-18T01:05:00.647Z,9.80
2022-09-18T01:07:39.871Z,9.80
2022-09-18T01:10:19.356Z,9.90
2022-09-18T01:12:54.200Z,9.80
2022-09-18T01:15:29.199Z,9.90
2022-09-18T01:18:06.776Z,9.80
2022-09-18T01:20:57.890Z,9.80
2022-09-18T01:23:51.228Z,9.90
2022-09-18T01:26:34.599Z,9.90
2022-09-18T01:29:09.721Z,9.90
2022-09-18T01:31:44.826Z,9.90
2022-09-18T01:34:18.986Z,9.90
2022-09-18T01:36:53.272Z,9.90
2022-09-18T01:39:30.259Z,9.90
2022-09-18T01:41:59.152Z,9.90
2022-09-18T01:44:32.397Z,9.90
2022-09-18T01:47:06.832Z,9.90
2022-09-18T01:49:40.979Z,9.90
2022-09-18T01:52:12.506Z,9.90
2022-09-18T01:54:46.139Z,9.90
2022-09-18T01:57:20.750Z,9.90
2022-09-18T01:59:55.960Z,9.90
2022-09-18T02:02:39.138Z,10.00
2022-09-18T02:05:10.340Z,10.00
2022-09-18T02:07:44.608Z,10.00
2022-09-18T02:10:14.558Z,9.90
2022-09-18T02:12:44.302Z,9.90
2022-09-18T02:15:16.192Z,9.90
2022-09-18T02:17:57.834Z,9.90
2022-09-18T02:20:37.835Z,9.90
2022-09-18T02:23:07.815Z,9.90
2022-09-18T02:25:39.781Z,10.00
2022-09-18T02:28:09.377Z,10.00
2022-09-18T02:30:41.138Z,9.90
2022-09-18T02:33:24.653Z,9.90
2022-09-18T02:36:17.874Z,9.90
2022-09-18T02:38:54.410Z,9.90
2022-09-18T02:41:34.230Z,9.90
2022-09-18T02:44:07.336Z,9.90
2022-09-18T02:46:52.992Z,9.90
2022-09-18T02:49:34.752Z,9.80
2022-09-18T02:52:07.683Z,9.80
2022-09-18T02:54:44.720Z,9.90
2022-09-18T02:57:17.537Z,9.80
2022-09-18T02:59:50.328Z,9.80
2022-09-18T03:02:22.881Z,9.70
2022-09-18T03:04:52.436Z,9.70
2022-09-18T03:07:28.152Z,9.70
2022-09-18T03:09:57.485Z,9.60
2022-09-18T03:12:25.293Z,9.60
2022-09-18T03:14:53.068Z,9.60
2022-09-18T03:17:22.193Z,9.50
2022-09-18T03:19:49.964Z,9.50
2022-09-18T03:22:17.781Z,9.50
2022-09-18T03:24:45.554Z,9.50
2022-09-18T03:27:18.223Z,9.40
2022-09-18T03:29:46.704Z,9.40
2022-09-18T03:32:17.394Z,9.40
2022-09-18T03:34:49.473Z,9.30
2022-09-18T03:37:18.670Z,9.30
2022-09-18T03:39:48.238Z,9.30
2022-09-18T03:42:16.042Z,9.20
2022-09-18T03:44:43.902Z,9.30
2022-09-18T03:47:23.489Z,9.30
2022-09-18T03:49:52.585Z,9.20
2022-09-18T03:52:21.721Z,9.20
2022-09-18T03:54:57.694Z,9.20
2022-09-18T03:57:46.008Z,9.20
2022-09-18T04:00:36.363Z,9.10
2022-09-18T04:03:12.346Z,9.10
2022-09-18T04:06:00.428Z,9.00
2022-09-18T04:08:57.240Z,9.00
2022-09-18T04:11:38.108Z,9.00
2022-09-18T04:14:06.469Z,9.00
2022-09-18T04:16:34.999Z,8.90
2022-09-18T04:19:02.846Z,9.00
2022-09-18T04:21:32.662Z,8.90
2022-09-18T04:24:00.673Z,8.90
2022-09-18T04:26:28.433Z,8.90
2022-09-18T04:28:59.395Z,8.90
2022-09-18T04:31:27.459Z,8.90
2022-09-18T04:33:57.370Z,8.90
2022-09-18T04:36:25.346Z,8.90
2022-09-18T04:38:54.546Z,8.90
2022-09-18T04:41:22.444Z,8.90
2022-09-18T04:43:50.288Z,8.90
2022-09-18T04:46:19.881Z,8.90
2022-09-18T04:48:49.794Z,9.00
2022-09-18T04:51:20.530Z,9.00
2022-09-18T04:53:51.278Z,9.00
2022-09-18T04:56:20.513Z,9.00
2022-09-18T04:58:51.162Z,9.10
2022-09-18T05:01:19.387Z,9.10
2022-09-18T05:03:47.464Z,9.10
2022-09-18T05:06:24.312Z,9.10
2022-09-18T05:08:52.455Z,9.10
2022-09-18T05:11:22.282Z,9.10
2022-09-18T05:13:52.454Z,9.00
2022-09-18T05:16:20.323Z,9.10
2022-09-18T05:19:04.182Z,9.10
2022-09-18T05:21:32.604Z,9.10
2022-09-18T05:24:00.460Z,9.10
2022-09-18T05:26:30.318Z,9.20
2022-09-18T05:28:59.568Z,9.20
2022-09-18T05:31:27.481Z,9.10
2022-09-18T05:33:55.445Z,9.10
2022-09-18T05:36:24.657Z,9.10
2022-09-18T05:38:52.469Z,9.10
2022-09-18T05:41:20.281Z,9.20
2022-09-18T05:43:49.363Z,9.10
2022-09-18T05:46:18.252Z,9.10
2022-09-18T05:48:58.095Z,9.10
2022-09-18T05:51:34.127Z,9.10
2022-09-18T05:54:06.720Z,9.20
2022-09-18T05:56:41.098Z,9.20
2022-09-18T05:59:10.434Z,9.20
2022-09-18T06:01:38.305Z,9.20
2022-09-18T06:04:21.715Z,9.20
2022-09-18T06:06:56.838Z,9.20
2022-09-18T06:09:24.892Z,9.20
2022-09-18T06:11:52.848Z,9.30
2022-09-18T06:14:21.944Z,9.20
2022-09-18T06:16:49.902Z,9.30
2022-09-18T06:19:18.057Z,9.30
2022-09-18T06:21:48.750Z,9.30
2022-09-18T06:24:19.016Z,9.30
2022-09-18T06:26:53.364Z,9.30
2022-09-18T06:29:24.718Z,9.30
2022-09-18T06:32:01.691Z,9.30
2022-09-18T06:34:29.608Z,9.30
2022-09-18T06:37:03.390Z,9.40
2022-09-18T06:39:50.439Z,9.40
2022-09-18T06:42:34.860Z,9.50
2022-09-18T06:45:15.499Z,9.60
2022-09-18T06:47:48.063Z,9.70
2022-09-18T06:50:15.948Z,9.70
2022-09-18T06:52:48.018Z,9.80
2022-09-18T06:55:16.448Z,9.90
2022-09-18T06:57:54.361Z,10.00
2022-09-18T07:00:24.231Z,10.10
2022-09-18T07:02:57.853Z,10.20
2022-09-18T07:05:46.063Z,10.20
2022-09-18T07:08:25.479Z,10.30
2022-09-18T07:11:01.814Z,10.40
2022-09-18T07:13:31.943Z,10.40
2022-09-18T07:16:04.486Z,10.50
2022-09-18T07:18:32.579Z,10.50
2022-09-18T07:21:00.962Z,10.60
2022-09-18T07:23:34.823Z,10.70
2022-09-18T07:26:05.315Z,10.60
2022-09-18T07:28:34.787Z,10.70
2022-09-18T07:31:13.926Z,10.70
2022-09-18T07:33:43.669Z,10.80
2022-09-18T07:36:17.152Z,10.90
2022-09-18T07:38:45.089Z,10.90
2022-09-18T07:41:13.056Z,10.80
2022-09-18T07:43:44.913Z,10.80
2022-09-18T07:46:14.429Z,10.80
2022-09-18T07:48:42.443Z,10.80
2022-09-18T07:51:17.434Z,10.90
2022-09-18T07:53:49.487Z,10.90
2022-09-18T07:56:25.588Z,11.00
2022-09-18T07:58:53.532Z,11.10
2022-09-18T08:01:36.022Z,11.10
2022-09-18T08:04:06.414Z,11.20
2022-09-18T08:06:36.820Z,11.30
2022-09-18T08:09:13.260Z,11.30
2022-09-18T08:12:16.696Z,11.30
2022-09-18T08:15:12.154Z,11.30
2022-09-18T08:17:52.368Z,11.40
2022-09-18T08:20:30.540Z,11.40
2022-09-18T08:23:09.750Z,11.50
2022-09-18T08:25:41.878Z,11.40
2022-09-18T08:28:11.055Z,11.40
2022-09-18T08:30:54.775Z,11.50
2022-09-18T08:33:24.397Z,11.40
2022-09-18T08:35:52.914Z,11.50
2022-09-18T08:38:40.902Z,11.40
2022-09-18T08:41:27.545Z,11.40
2022-09-18T08:44:04.089Z,11.40
2022-09-18T08:46:37.132Z,11.40
2022-09-18T08:49:23.410Z,11.40
2022-09-18T08:51:58.690Z,11.50
2022-09-18T08:54:40.739Z,11.50
2022-09-18T08:57:28.763Z,11.50
2022-09-18T09:00:07.155Z,11.50
2022-09-18T09:02:40.316Z,11.50
2022-09-18T09:05:13.161Z,11.50
2022-09-18T09:08:19.948Z,11.60
2022-09-18T09:10:56.173Z,11.60
2022-09-18T09:13:54.893Z,11.60
2022-09-18T09:16:32.224Z,11.70
2022-09-18T09:19:02.416Z,11.70
2022-09-18T09:21:50.627Z,11.60
2022-09-18T09:24:31.877Z,11.60
2022-09-18T09:27:16.455Z,11.70
2022-09-18T09:30:07.833Z,11.70
2022-09-18T09:33:03.799Z,11.60
2022-09-18T09:35:46.645Z,11.60
2022-09-18T09:38:35.598Z,11.60
2022-09-18T09:41:13.207Z,11.70
2022-09-18T09:43:47.999Z,11.70
2022-09-18T09:46:24.339Z,11.70
2022-09-18T09:48:57.703Z,11.70
2022-09-18T09:51:32.154Z,11.70
2022-09-18T09:54:02.966Z,11.70
2022-09-18T09:56:38.683Z,11.70
2022-09-18T09:59:17.601Z,11.70
2022-09-18T10:02:33.692Z,11.70
2022-09-18T10:05:14.203Z,11.80
2022-09-18T10:07:47.492Z,11.80
2022-09-18T10:10:27.500Z,11.80
2022-09-18T10:12:59.059Z,11.80
2022-09-18T10:15:34.827Z,11.80
2022-09-18T10:18:08.571Z,11.70
2022-09-18T10:20:37.396Z,11.80
2022-09-18T10:23:11.152Z,11.80
2022-09-18T10:25:47.504Z,11.80
2022-09-18T10:28:17.822Z,11.80
2022-09-18T10:30:57.596Z,11.80
2022-09-18T10:33:34.391Z,11.80
2022-09-18T10:36:12.704Z,11.70
2022-09-18T10:38:40.673Z,11.80
2022-09-18T10:41:35.147Z,11.70
2022-09-18T10:44:20.721Z,11.70
2022-09-18T10:46:55.752Z,11.60
2022-09-18T10:49:26.847Z,11.60
2022-09-18T10:52:28.410Z,11.60
2022-09-18T10:55:02.138Z,11.60
2022-09-18T10:57:34.973Z,11.70
2022-09-18T11:00:48.319Z,11.70
2022-09-18T11:03:23.109Z,11.70
2022-09-18T11:05:56.601Z,11.60
2022-09-18T11:08:27.859Z,11.70
2022-09-18T11:11:03.903Z,11.80
2022-09-18T11:13:43.335Z,11.80
2022-09-18T11:16:22.561Z,11.70
2022-09-18T11:19:07.211Z,11.80
2022-09-18T11:21:45.288Z,11.90
2022-09-18T11:24:22.686Z,12.00
2022-09-18T11:26:52.042Z,12.20
2022-09-18T11:29:25.975Z,12.20
2022-09-18T11:31:57.936Z,12.20
2022-09-18T11:34:31.635Z,12.20
2022-09-18T11:37:03.606Z,12.20
2022-09-18T11:39:38.664Z,12.20
2022-09-18T11:42:13.275Z,12.20
2022-09-18T11:44:43.245Z,12.20
2022-09-18T11:47:28.289Z,12.10
2022-09-18T11:50:11.962Z,12.00
2022-09-18T11:52:43.484Z,12.00
2022-09-18T11:55:25.860Z,11.90
2022-09-18T11:57:57.085Z,11.90
2022-09-18T12:00:30.321Z,12.00
2022-09-18T12:03:08.558Z,12.00
2022-09-18T12:05:52.139Z,12.00
2022-09-18T12:08:28.120Z,12.00
2022-09-18T12:11:11.888Z,12.00
2022-09-18T12:13:48.400Z,12.10
2022-09-18T12:16:23.211Z,12.20
2022-09-18T12:18:58.948Z,12.30
2022-09-18T12:21:38.766Z,12.30
2022-09-18T12:24:13.068Z,12.40
2022-09-18T12:26:54.048Z,12.50
2022-09-18T12:29:35.379Z,12.50
2022-09-18T12:32:20.214Z,12.60
2022-09-18T12:34:57.141Z,12.60
2022-09-18T12:37:38.223Z,12.50
2022-09-18T12:40:23.740Z,12.40
2022-09-18T12:43:06.085Z,12.30
2022-09-18T12:46:00.225Z,12.10
2022-09-18T12:48:48.075Z,11.90
2022-09-18T12:51:35.318Z,11.90
2022-09-18T12:54:20.104Z,11.90
2022-09-18T12:57:01.191Z,11.90
2022-09-18T12:59:47.490Z,11.80
2022-09-18T13:02:27.962Z,11.70
2022-09-18T13:05:02.542Z,11.70
2022-09-18T13:07:35.475Z,11.70
2022-09-18T13:10:10.944Z,11.70
2022-09-18T13:12:42.939Z,11.60
2022-09-18T13:15:18.010Z,11.60
2022-09-18T13:17:49.995Z,11.60
2022-09-18T13:20:25.105Z,11.60
2022-09-18T13:22:54.430Z,11.60
2022-09-18T13:25:28.238Z,11.60
2022-09-18T13:28:26.133Z,11.60
2022-09-18T13:31:19.897Z,11.60
2022-09-18T13:33:58.805Z,11.60
2022-09-18T13:39:23.495Z,11.50
2022-09-18T13:41:53.267Z,11.50
2022-09-18T13:44:22.975Z,11.50
2022-09-18T13:46:52.380Z,11.40
2022-09-18T13:49:29.600Z,11.40
2022-09-18T13:52:17.793Z,11.40
2022-09-18T13:55:01.205Z,11.40
2022-09-18T13:57:32.755Z,11.40
2022-09-18T14:00:02.333Z,11.40
2022-09-18T14:02:40.776Z,11.40
2022-09-18T14:05:33.702Z,11.30
2022-09-18T14:08:05.361Z,11.30
2022-09-18T14:11:16.737Z,11.30
2022-09-18T14:13:54.143Z,11.30
2022-09-18T14:16:33.174Z,11.20
2022-09-18T14:19:08.012Z,11.10
2022-09-18T14:21:41.653Z,11.20
2022-09-18T14:24:36.386Z,11.20
2022-09-18T14:27:35.243Z,11.20
2022-09-18T14:30:19.911Z,11.10
2022-09-18T14:33:06.441Z,11.10
2022-09-18T14:35:42.919Z,11.20
2022-09-18T14:38:18.743Z,11.20
2022-09-18T14:40:54.302Z,11.10
2022-09-18T14:43:24.745Z,11.10
2022-09-18T14:45:54.385Z,11.10
2022-09-18T14:48:27.918Z,11.00
2022-09-18T14:51:01.146Z,10.90
2022-09-18T14:53:31.413Z,10.90
2022-09-18T14:56:02.836Z,10.90
2022-09-18T14:58:36.312Z,10.80
2022-09-18T15:01:07.474Z,10.80
2022-09-18T15:03:40.507Z,10.70
2022-09-18T15:06:16.660Z,10.70
2022-09-18T15:08:46.687Z,10.70
2022-09-18T15:11:16.086Z,10.60
2022-09-18T15:13:46.454Z,10.60
2022-09-18T15:16:20.311Z,10.60
2022-09-18T15:18:48.422Z,10.60
2022-09-18T15:21:28.904Z,10.60
2022-09-18T15:24:02.467Z,10.60
2022-09-18T15:26:33.199Z,10.40
2022-09-18T15:29:05.061Z,10.40
2022-09-18T15:31:33.665Z,10.40
2022-09-18T15:34:06.762Z,10.30
2022-09-18T15:36:36.918Z,10.40
2022-09-18T15:39:07.292Z,10.40
2022-09-18T15:41:41.333Z,10.40
2022-09-18T15:44:51.416Z,10.40
2022-09-18T15:47:32.659Z,10.40
2022-09-18T15:50:01.924Z,10.30
2022-09-18T15:52:36.929Z,10.30
2022-09-18T15:55:07.236Z,10.20
2022-09-18T15:57:35.368Z,10.20
2022-09-18T16:00:06.488Z,10.30
2022-09-18T16:02:40.314Z,10.30
2022-09-18T16:05:09.558Z,10.30
2022-09-18T16:07:38.521Z,10.40
2022-09-18T16:10:48.928Z,10.30
2022-09-18T16:13:33.731Z,10.40
2022-09-18T16:16:23.337Z,10.40
2022-09-18T16:18:55.954Z,10.50
2022-09-18T16:21:30.256Z,10.40
2022-09-18T16:24:01.220Z,10.30
2022-09-18T16:26:33.895Z,10.20
2022-09-18T16:29:04.796Z,10.20
2022-09-18T16:31:34.340Z,10.20
2022-09-18T16:34:03.681Z,10.10
2022-09-18T16:36:34.348Z,10.20
2022-09-18T16:39:03.981Z,10.20
2022-09-18T16:41:34.087Z,10.20
2022-09-18T16:44:02.338Z,10.00
2022-09-18T16:46:35.510Z,10.00
2022-09-18T16:49:03.319Z,10.00
2022-09-18T16:51:31.166Z,10.00
2022-09-18T16:53:58.890Z,10.00
2022-09-18T16:56:30.035Z,9.90
2022-09-18T16:59:01.206Z,9.90
2022-09-18T17:01:39.563Z,9.90
2022-09-18T17:04:17.766Z,9.90
2022-09-18T17:06:45.545Z,9.90
2022-09-18T17:09:13.255Z,9.90
2022-09-18T17:11:41.054Z,9.90
2022-09-18T17:14:10.381Z,9.90
2022-09-18T17:16:44.619Z,9.70
2022-09-18T17:19:13.214Z,9.70
2022-09-18T17:21:42.460Z,9.60
2022-09-18T17:24:10.775Z,9.60
2022-09-18T17:26:40.027Z,9.60
2022-09-18T17:29:08.204Z,9.50
2022-09-18T17:31:37.364Z,9.40
2022-09-18T17:34:05.678Z,9.40
2022-09-18T17:36:35.917Z,9.40
2022-09-18T17:39:03.927Z,9.40
2022-09-18T17:41:33.003Z,9.40
2022-09-18T17:44:00.940Z,9.40
2022-09-18T17:46:28.737Z,9.40
2022-09-18T17:48:59.598Z,9.40
2022-09-18T17:51:29.176Z,9.40
2022-09-18T17:53:59.250Z,9.30
2022-09-18T17:56:29.799Z,9.40
2022-09-18T17:58:59.842Z,9.40
2022-09-18T18:01:29.210Z,9.30
2022-09-18T18:03:58.354Z,9.30
2022-09-18T18:06:26.300Z,9.40
2022-09-18T18:08:54.091Z,9.30
2022-09-18T18:11:25.097Z,9.30
2022-09-18T18:13:54.345Z,9.40
2022-09-18T18:16:25.782Z,9.40
2022-09-18T18:18:56.123Z,9.40
2022-09-18T18:21:26.348Z,9.40
2022-09-18T18:23:56.353Z,9.40
2022-09-18T18:26:24.138Z,9.50
2022-09-18T18:28:51.992Z,9.50
2022-09-18T18:31:19.795Z,9.40
2022-09-18T18:33:47.576Z,9.40
2022-09-18T18:36:17.804Z,9.30
2022-09-18T18:38:49.186Z,9.40
2022-09-18T18:41:19.091Z,9.40
2022-09-18T18:43:46.879Z,9.40
2022-09-18T18:46:15.420Z,9.50
2022-09-18T18:48:44.604Z,9.50
2022-09-18T18:51:14.045Z,9.50
2022-09-18T18:53:42.528Z,9.50
2022-09-18T18:56:13.822Z,9.50
2022-09-18T18:58:42.846Z,9.50
2022-09-18T19:01:13.168Z,9.50
2022-09-18T19:03:42.983Z,9.50
2022-09-18T19:06:11.073Z,9.50
2022-09-18T19:08:39.089Z,9.50
2022-09-18T19:11:07.738Z,9.50
2022-09-18T19:13:41.250Z,9.50
2022-09-18T19:16:09.330Z,9.60
2022-09-18T19:18:37.587Z,9.50
2022-09-18T19:21:06.037Z,9.50
2022-09-18T19:23:34.072Z,9.60
2022-09-18T19:26:02.046Z,9.60
2022-09-18T19:28:30.803Z,9.60
2022-09-18T19:31:05.217Z,9.60
2022-09-18T19:33:34.030Z,9.60
2022-09-18T19:36:06.427Z,9.60
2022-09-18T19:38:36.919Z,9.60
2022-09-18T19:41:10.175Z,9.60
2022-09-18T19:43:38.135Z,9.60
2022-09-18T19:46:08.744Z,9.60
2022-09-18T19:48:36.615Z,9.50
2022-09-18T19:51:04.946Z,9.50
2022-09-18T19:53:32.803Z,9.50
2022-09-18T19:56:01.210Z,9.50
2022-09-18T19:58:29.016Z,9.40
2022-09-18T20:00:57.977Z,9.40
2022-09-18T20:03:27.095Z,9.40
2022-09-18T20:06:00.121Z,9.40
2022-09-18T20:08:28.472Z,9.40
2022-09-18T20:10:56.543Z,9.30
2022-09-18T20:13:26.155Z,9.40
2022-09-18T20:16:02.014Z,9.30
2022-09-18T20:18:31.652Z,9.30
2022-09-18T20:21:05.770Z,9.40
2022-09-18T20:23:33.561Z,9.30
2022-09-18T20:26:01.345Z,9.40
2022-09-18T20:28:30.243Z,9.40
2022-09-18T20:31:01.940Z,9.30
2022-09-18T20:33:31.065Z,9.30
2022-09-18T20:36:00.230Z,9.40
2022-09-18T20:38:31.050Z,9.40
2022-09-18T20:41:03.676Z,9.30
2022-09-18T20:43:34.015Z,9.30
2022-09-18T20:46:04.528Z,9.30
2022-09-18T20:48:34.447Z,9.30
2022-09-18T20:51:07.983Z,9.30
2022-09-18T20:53:36.540Z,9.20
2022-09-18T20:56:04.713Z,9.20
2022-09-18T20:58:34.079Z,9.20
2022-09-18T21:01:08.211Z,9.20
2022-09-18T21:03:37.663Z,9.10
2022-09-18T21:06:21.813Z,9.10
2022-09-18T21:08:53.025Z,9.00
2022-09-18T21:11:23.138Z,9.00
2022-09-18T21:13:53.784Z,8.90
2022-09-18T21:16:22.713Z,8.90
2022-09-18T21:18:53.377Z,8.90
2022-09-18T21:21:21.328Z,8.90
2022-09-18T21:23:56.383Z,8.80
2022-09-18T21:26:25.670Z,8.80
2022-09-18T21:28:54.702Z,8.80
2022-09-18T21:31:23.585Z,8.80
2022-09-18T21:33:53.193Z,8.70
2022-09-18T21:36:21.994Z,8.70
2022-09-18T21:38:50.809Z,8.60
2022-09-18T21:41:20.564Z,8.60
2022-09-18T21:43:48.635Z,8.60
2022-09-18T21:46:19.163Z,8.60
2022-09-18T21:48:48.344Z,8.50
2022-09-18T21:51:18.367Z,8.60
2022-09-18T21:53:46.480Z,8.50
2022-09-18T21:56:18.528Z,8.50
2022-09-18T21:58:47.366Z,8.60
2022-09-18T22:01:17.751Z,8.50
2022-09-18T22:03:50.641Z,8.50
2022-09-18T22:06:21.254Z,8.50
2022-09-18T22:08:50.160Z,8.50
2022-09-18T22:11:18.512Z,8.50
2022-09-18T22:13:46.717Z,8.50
2022-09-18T22:16:15.027Z,8.50
2022-09-18T22:18:42.854Z,8.50
2022-09-18T22:21:20.982Z,8.60
2022-09-18T22:23:50.350Z,8.50
2022-09-18T22:26:18.927Z,8.50
2022-09-18T22:28:49.644Z,8.40
2022-09-18T22:31:18.036Z,8.30
2022-09-18T22:33:47.317Z,8.30
2022-09-18T22:36:15.723Z,8.30
2022-09-18T22:38:44.809Z,8.30
2022-09-18T22:41:12.756Z,8.30
2022-09-18T22:43:40.741Z,8.30
2022-09-18T22:46:10.217Z,8.30
2022-09-18T22:48:39.051Z,8.30
2022-09-18T22:51:08.457Z,8.30
2022-09-18T22:53:37.271Z,8.20
2022-09-18T22:56:09.603Z,8.20
2022-09-18T22:58:38.336Z,8.20
2022-09-18T23:01:07.933Z,8.20
2022-09-18T23:03:36.812Z,8.20
2022-09-18T23:06:06.326Z,8.20
2022-09-18T23:08:35.289Z,8.20
2022-09-18T23:11:07.375Z,8.20
2022-09-18T23:13:35.909Z,8.20
2022-09-18T23:16:05.874Z,8.20
2022-09-18T23:18:33.890Z,8.20
2022-09-18T23:21:03.255Z,8.20
2022-09-18T23:23:32.972Z,8.20
2022-09-18T23:26:08.437Z,8.20
2022-09-18T23:28:38.255Z,8.20
2022-09-18T23:31:08.133Z,8.20
2022-09-18T23:33:36.262Z,8.20
2022-09-18T23:36:09.035Z,8.20
2022-09-18T23:38:37.237Z,8.20
2022-09-18T23:41:08.046Z,8.20
2022-09-18T23:43:36.282Z,8.30
2022-09-18T23:46:04.519Z,8.30
2022-09-18T23:48:33.052Z,8.30
2022-09-18T23:51:01.684Z,8.30
2022-09-18T23:53:37.475Z,8.30
2022-09-18T23:56:09.781Z,8.30
2022-09-18T23:58:38.264Z,8.30
